Time;durP1;ratioP1;P1;durP2;ratioP2;P2;SDS_P1;SDS_P2;PMS_P1;PMS_P2;Temp;Humidity;BMP_temperature;BMP_pressure;BME280_temperature;BME280_humidity;BME280_pressure;Samples;Min_cycle;Max_cycle;Signal;HPM_P1;HPM_P2
2023/03/08 00:00:21;;;;;;;;;;;6.40;63.00;;;;;;5080837;27;19939;-80
2023/03/08 00:02:47;;;;;;;;;;;6.40;63.10;;;;;;5100263;28;19932;-80
2023/03/08 00:05:14;;;;;;;;;;;6.40;63.20;;;;;;5098033;28;20389;-80
2023/03/08 00:07:41;;;;;;;;;;;6.40;63.10;;;;;;5097171;28;19954;-80
2023/03/08 00:10:09;;;;;;;;;;;6.40;63.00;;;;;;5101391;28;19946;-79
2023/03/08 00:12:35;;;;;;;;;;;6.40;63.70;;;;;;5103659;28;19935;-79
2023/03/08 00:15:02;;;;;;;;;;;6.40;62.90;;;;;;5105230;28;19935;-78
2023/03/08 00:17:28;;;;;;;;;;;6.40;63.00;;;;;;5094936;28;19939;-78
2023/03/08 00:19:56;;;;;;;;;;;6.40;62.90;;;;;;5097485;28;20080;-78
2023/03/08 00:22:22;;;;;;;;;;;6.30;62.90;;;;;;5096154;28;20009;-78
2023/03/08 00:24:52;;;;;;;;;;;6.40;63.10;;;;;;5100732;28;20754;-78
2023/03/08 00:27:19;;;;;;;;;;;6.30;63.10;;;;;;5093401;28;19951;-78
2023/03/08 00:29:45;;;;;;;;;;;6.30;63.30;;;;;;5102707;28;20382;-77
2023/03/08 00:32:12;;;;;;;;;;;6.30;63.20;;;;;;5088310;28;19935;-78
2023/03/08 00:34:38;;;;;;;;;;;6.30;63.40;;;;;;5093988;28;19959;-78
2023/03/08 00:37:05;;;;;;;;;;;6.20;63.50;;;;;;5093327;28;19950;-78
2023/03/08 00:39:31;;;;;;;;;;;6.30;63.70;;;;;;5092221;28;19928;-78
2023/03/08 00:41:59;;;;;;;;;;;6.30;63.90;;;;;;5100977;28;19973;-79
2023/03/08 00:44:26;;;;;;;;;;;6.20;63.90;;;;;;5090110;28;19928;-78
2023/03/08 00:46:52;;;;;;;;;;;6.20;64.00;;;;;;5091002;28;19928;-78
2023/03/08 00:49:19;;;;;;;;;;;6.20;64.20;;;;;;5091754;28;19927;-79
2023/03/08 00:51:46;;;;;;;;;;;6.20;64.30;;;;;;5096982;28;19973;-79
2023/03/08 00:54:13;;;;;;;;;;;6.20;64.40;;;;;;5097898;28;20474;-78
2023/03/08 00:56:39;;;;;;;;;;;6.20;64.40;;;;;;5101099;28;19928;-77
2023/03/08 00:59:07;;;;;;;;;;;6.10;64.40;;;;;;5101353;28;19985;-78
2023/03/08 01:01:33;;;;;;;;;;;6.10;64.50;;;;;;5097734;28;19928;-79
2023/03/08 01:04:01;;;;;;;;;;;6.10;64.60;;;;;;5101813;28;19928;-78
2023/03/08 01:06:27;;;;;;;;;;;6.10;64.70;;;;;;5093128;28;19932;-78
2023/03/08 01:08:54;;;;;;;;;;;6.10;64.70;;;;;;5091585;28;19949;-79
2023/03/08 01:11:21;;;;;;;;;;;6.10;64.80;;;;;;5096110;28;19958;-78
2023/03/08 01:13:48;;;;;;;;;;;6.00;64.60;;;;;;5099947;28;20420;-79
2023/03/08 01:16:18;;;;;;;;;;;6.10;64.70;;;;;;5097816;27;19928;-79
2023/03/08 01:18:44;;;;;;;;;;;6.00;64.60;;;;;;5099567;28;19934;-78
2023/03/08 01:21:11;;;;;;;;;;;6.00;64.70;;;;;;5096734;28;20502;-78
2023/03/08 01:23:37;;;;;;;;;;;6.00;64.60;;;;;;5095978;27;19934;-79
2023/03/08 01:26:05;;;;;;;;;;;6.00;64.70;;;;;;5101117;27;19973;-79
2023/03/08 01:28:32;;;;;;;;;;;6.00;64.60;;;;;;5094154;27;19927;-78
2023/03/08 01:31:02;;;;;;;;;;;6.00;64.60;;;;;;5096127;28;19932;-78
2023/03/08 01:33:30;;;;;;;;;;;5.90;64.50;;;;;;5097410;28;20000;-79
2023/03/08 01:35:56;;;;;;;;;;;5.90;64.70;;;;;;5098101;28;19935;-77
2023/03/08 01:38:23;;;;;;;;;;;5.90;64.70;;;;;;5101306;28;19928;-79
2023/03/08 01:40:55;;;;;;;;;;;5.90;64.70;;;;;;5105696;28;19927;-78
2023/03/08 01:43:22;;;;;;;;;;;5.90;64.70;;;;;;5099476;28;19993;-78
2023/03/08 01:46:07;;;;;;;;;;;5.90;64.90;;;;;;5102406;28;19949;-78
2023/03/08 01:48:38;;;;;;;;;;;5.90;64.90;;;;;;5095695;28;19938;-79
2023/03/08 01:51:06;;;;;;;;;;;5.90;64.90;;;;;;5101774;27;19931;-79
2023/03/08 01:53:34;;;;;;;;;;;5.90;65.00;;;;;;5100446;28;19928;-78
2023/03/08 01:56:01;;;;;;;;;;;5.80;65.00;;;;;;5098668;27;20012;-79
2023/03/08 01:58:27;;;;;;;;;;;5.80;65.10;;;;;;5099893;27;20394;-79
2023/03/08 02:00:54;;;;;;;;;;;5.80;65.10;;;;;;5098395;27;19931;-77
2023/03/08 02:03:22;;;;;;;;;;;5.80;65.20;;;;;;5095116;28;21306;-79
2023/03/08 02:05:51;;;;;;;;;;;5.80;65.30;;;;;;5099740;28;20381;-79
2023/03/08 02:08:17;;;;;;;;;;;5.80;65.30;;;;;;5098488;28;20014;-79
2023/03/08 02:10:44;;;;;;;;;;;5.80;65.40;;;;;;5097557;28;19938;-77
2023/03/08 02:13:11;;;;;;;;;;;5.80;65.50;;;;;;5107690;28;20671;-79
2023/03/08 02:15:37;;;;;;;;;;;5.70;65.50;;;;;;5095703;28;19927;-78
2023/03/08 02:18:04;;;;;;;;;;;5.70;65.70;;;;;;5103594;28;19927;-78
2023/03/08 02:20:31;;;;;;;;;;;5.70;65.80;;;;;;5100088;28;19933;-78
2023/03/08 02:23:08;;;;;;;;;;;5.70;65.90;;;;;;5097354;28;19972;-78
2023/03/08 02:25:34;;;;;;;;;;;5.70;66.80;;;;;;5095955;28;19935;-78
2023/03/08 02:28:01;;;;;;;;;;;5.70;66.00;;;;;;5099602;27;19932;-79
2023/03/08 02:30:31;;;;;;;;;;;5.70;66.00;;;;;;5093773;28;19936;-78
2023/03/08 02:32:57;;;;;;;;;;;5.70;66.00;;;;;;5095431;28;19932;-78
2023/03/08 02:35:24;;;;;;;;;;;5.60;65.90;;;;;;5096272;28;20944;-78
2023/03/08 02:37:50;;;;;;;;;;;5.60;66.00;;;;;;5096190;28;20752;-79
2023/03/08 02:40:18;;;;;;;;;;;5.60;66.00;;;;;;5099110;28;19969;-78
2023/03/08 02:42:45;;;;;;;;;;;5.60;66.10;;;;;;5100731;28;19928;-78
2023/03/08 02:45:11;;;;;;;;;;;5.60;66.20;;;;;;5097904;28;20340;-78
2023/03/08 02:47:38;;;;;;;;;;;5.60;66.20;;;;;;5096732;28;20827;-79
2023/03/08 02:50:05;;;;;;;;;;;5.60;66.90;;;;;;5100733;27;20016;-79
2023/03/08 02:52:32;;;;;;;;;;;5.60;66.10;;;;;;5098518;27;19928;-78
2023/03/08 02:54:59;;;;;;;;;;;5.60;66.20;;;;;;5100833;28;20298;-78
2023/03/08 02:57:27;;;;;;;;;;;5.60;66.20;;;;;;5099609;28;19980;-78
2023/03/08 02:59:53;;;;;;;;;;;5.60;66.20;;;;;;5098252;28;19989;-79
2023/03/08 03:02:20;;;;;;;;;;;5.60;66.30;;;;;;5095075;27;19973;-79
2023/03/08 03:04:46;;;;;;;;;;;5.60;66.20;;;;;;5092597;28;19932;-79
2023/03/08 03:07:13;;;;;;;;;;;5.60;66.30;;;;;;5098523;28;19927;-79
2023/03/08 03:09:39;;;;;;;;;;;5.60;66.40;;;;;;5098163;28;19931;-79
2023/03/08 03:12:06;;;;;;;;;;;5.50;66.40;;;;;;5095087;28;19928;-80
2023/03/08 03:14:34;;;;;;;;;;;5.50;66.40;;;;;;5095188;28;19935;-79
2023/03/08 03:17:01;;;;;;;;;;;5.50;66.40;;;;;;5093856;28;19985;-79
2023/03/08 03:19:27;;;;;;;;;;;5.60;66.60;;;;;;5100935;28;20408;-81
2023/03/08 03:21:54;;;;;;;;;;;5.50;66.40;;;;;;5095145;28;19997;-77
2023/03/08 03:24:20;;;;;;;;;;;5.50;66.40;;;;;;5096282;28;19928;-78
2023/03/08 03:26:49;;;;;;;;;;;5.50;66.50;;;;;;5095665;28;19993;-80
2023/03/08 03:29:16;;;;;;;;;;;5.50;66.50;;;;;;5093765;28;20781;-80
2023/03/08 03:31:44;;;;;;;;;;;5.50;66.40;;;;;;5095493;27;21078;-79
2023/03/08 03:34:10;;;;;;;;;;;5.50;66.50;;;;;;5097237;28;19928;-79
2023/03/08 03:36:37;;;;;;;;;;;5.50;66.60;;;;;;5093485;28;20377;-80
2023/03/08 03:39:03;;;;;;;;;;;5.50;66.60;;;;;;5096228;28;19932;-79
2023/03/08 03:41:30;;;;;;;;;;;5.50;66.60;;;;;;5096061;28;20329;-79
2023/03/08 03:43:57;;;;;;;;;;;5.50;66.60;;;;;;5098090;28;20435;-78
2023/03/08 03:46:24;;;;;;;;;;;5.50;66.50;;;;;;5099711;27;19931;-78
2023/03/08 03:48:52;;;;;;;;;;;5.50;66.50;;;;;;5099718;28;19927;-79
2023/03/08 03:51:19;;;;;;;;;;;5.50;66.60;;;;;;5097770;28;19932;-79
2023/03/08 03:53:46;;;;;;;;;;;5.40;66.60;;;;;;5098071;28;20659;-78
2023/03/08 03:56:14;;;;;;;;;;;5.50;66.70;;;;;;5094475;28;19928;-79
2023/03/08 03:58:41;;;;;;;;;;;5.40;66.80;;;;;;5100775;28;19931;-78
2023/03/08 04:01:08;;;;;;;;;;;5.50;66.80;;;;;;5098536;28;19980;-79
2023/03/08 04:03:34;;;;;;;;;;;5.40;66.80;;;;;;5094758;28;19928;-78
2023/03/08 04:06:10;;;;;;;;;;;5.40;66.80;;;;;;5097528;28;19924;-78
2023/03/08 04:08:40;;;;;;;;;;;5.40;67.00;;;;;;5093149;28;20193;-78
2023/03/08 04:11:07;;;;;;;;;;;5.50;67.10;;;;;;5097694;28;19928;-78
2023/03/08 04:13:34;;;;;;;;;;;5.40;67.10;;;;;;5100227;28;20383;-78
2023/03/08 04:16:00;;;;;;;;;;;5.50;67.30;;;;;;5101730;28;19928;-78
2023/03/08 04:18:27;;;;;;;;;;;5.40;67.40;;;;;;5097339;28;20341;-78
2023/03/08 04:20:53;;;;;;;;;;;5.50;67.50;;;;;;5097457;28;19928;-77
2023/03/08 04:23:21;;;;;;;;;;;5.40;67.50;;;;;;5093654;28;19931;-80
2023/03/08 04:25:47;;;;;;;;;;;5.40;67.40;;;;;;5100283;28;25878;-79
2023/03/08 04:28:14;;;;;;;;;;;5.40;67.40;;;;;;5100649;28;19928;-79
2023/03/08 04:30:40;;;;;;;;;;;5.40;67.50;;;;;;5100335;28;19932;-79
2023/03/08 04:33:08;;;;;;;;;;;5.40;67.60;;;;;;5096975;28;19974;-79
2023/03/08 04:35:34;;;;;;;;;;;5.40;67.70;;;;;;5094829;28;19928;-78
2023/03/08 04:38:01;;;;;;;;;;;5.40;67.80;;;;;;5100185;28;20318;-79
2023/03/08 04:40:29;;;;;;;;;;;5.40;67.90;;;;;;5094165;28;19928;-77
2023/03/08 04:42:56;;;;;;;;;;;5.40;67.90;;;;;;5093612;28;20026;-78
2023/03/08 04:45:22;;;;;;;;;;;5.40;68.00;;;;;;5103524;28;19931;-78
2023/03/08 04:47:49;;;;;;;;;;;5.40;68.10;;;;;;5095643;27;20552;-79
2023/03/08 04:50:16;;;;;;;;;;;5.40;68.10;;;;;;5106528;28;20386;-79
2023/03/08 04:52:42;;;;;;;;;;;5.40;68.20;;;;;;5100955;28;19985;-79
2023/03/08 04:55:09;;;;;;;;;;;5.40;68.30;;;;;;5096900;28;19928;-79
2023/03/08 04:57:37;;;;;;;;;;;5.30;68.30;;;;;;5097308;28;20045;-79
2023/03/08 05:00:04;;;;;;;;;;;5.40;68.30;;;;;;5096996;28;20393;-79
2023/03/08 05:02:31;;;;;;;;;;;5.40;68.40;;;;;;5097792;28;19947;-78
2023/03/08 05:04:57;;;;;;;;;;;5.40;68.40;;;;;;5107627;27;19928;-79
2023/03/08 05:07:24;;;;;;;;;;;5.40;68.40;;;;;;5100897;28;19950;-78
2023/03/08 05:09:50;;;;;;;;;;;5.30;68.40;;;;;;5095253;28;19928;-80
2023/03/08 05:12:17;;;;;;;;;;;5.40;68.50;;;;;;5097420;27;20446;-78
2023/03/08 05:14:45;;;;;;;;;;;5.40;68.60;;;;;;5099096;28;20412;-78
2023/03/08 05:17:11;;;;;;;;;;;5.30;68.60;;;;;;5103490;28;19928;-79
2023/03/08 05:19:38;;;;;;;;;;;5.30;68.60;;;;;;5102162;28;19934;-79
2023/03/08 05:22:05;;;;;;;;;;;5.30;68.70;;;;;;5102861;27;19988;-79
2023/03/08 05:24:32;;;;;;;;;;;5.40;68.80;;;;;;5105270;28;20723;-78
2023/03/08 05:26:58;;;;;;;;;;;5.30;68.80;;;;;;5099788;27;19924;-79
2023/03/08 05:29:25;;;;;;;;;;;5.30;69.60;;;;;;5101177;28;19931;-78
2023/03/08 05:31:53;;;;;;;;;;;5.30;69.00;;;;;;5099348;28;19927;-77
2023/03/08 05:34:19;;;;;;;;;;;5.30;69.10;;;;;;5102507;28;19932;-78
2023/03/08 05:36:46;;;;;;;;;;;5.30;69.20;;;;;;5096362;28;20385;-78
2023/03/08 05:39:12;;;;;;;;;;;5.30;69.30;;;;;;5100866;28;19940;-77
2023/03/08 05:41:39;;;;;;;;;;;5.30;69.30;;;;;;5096340;28;19928;-79
2023/03/08 05:44:05;;;;;;;;;;;5.30;69.40;;;;;;5099152;28;19927;-79
2023/03/08 05:46:32;;;;;;;;;;;5.30;69.50;;;;;;5097269;28;20010;-78
2023/03/08 05:49:00;;;;;;;;;;;5.30;70.20;;;;;;5098497;28;20382;-79
2023/03/08 05:51:26;;;;;;;;;;;5.30;69.50;;;;;;5097298;27;19931;-79
2023/03/08 05:53:53;;;;;;;;;;;5.30;69.50;;;;;;5099700;28;19932;-77
2023/03/08 05:56:21;;;;;;;;;;;5.30;69.60;;;;;;5098390;28;19981;-78
2023/03/08 05:58:47;;;;;;;;;;;5.30;69.70;;;;;;5087090;28;20028;-78
2023/03/08 06:01:15;;;;;;;;;;;5.30;69.60;;;;;;5091380;28;19939;-79
2023/03/08 06:03:42;;;;;;;;;;;5.30;69.70;;;;;;5084257;28;19932;-78
2023/03/08 06:06:10;;;;;;;;;;;5.30;69.70;;;;;;5089655;28;19957;-79
2023/03/08 06:08:36;;;;;;;;;;;5.20;69.10;;;;;;5087541;28;19931;-73
2023/03/08 06:11:03;;;;;;;;;;;5.20;69.10;;;;;;5100472;28;19935;-73
2023/03/08 06:13:30;;;;;;;;;;;5.20;69.50;;;;;;5095897;28;19931;-73
2023/03/08 06:15:56;;;;;;;;;;;5.20;69.70;;;;;;5096775;28;19932;-73
2023/03/08 06:18:23;;;;;;;;;;;5.20;69.80;;;;;;5101213;28;19928;-73
2023/03/08 06:20:57;;;;;;;;;;;5.20;69.80;;;;;;5095596;28;19946;-74
2023/03/08 06:23:25;;;;;;;;;;;5.20;69.90;;;;;;5092939;28;19928;-73
2023/03/08 06:25:52;;;;;;;;;;;5.20;69.90;;;;;;5094431;27;19928;-73
2023/03/08 06:28:18;;;;;;;;;;;5.20;69.90;;;;;;5088385;28;20390;-73
2023/03/08 06:30:48;;;;;;;;;;;5.20;70.00;;;;;;5091012;28;19928;-73
2023/03/08 06:33:14;;;;;;;;;;;5.20;70.00;;;;;;5091323;28;20433;-73
2023/03/08 06:35:41;;;;;;;;;;;5.20;70.10;;;;;;5097139;28;19928;-73
2023/03/08 06:38:07;;;;;;;;;;;5.20;70.20;;;;;;5092831;28;19935;-73
2023/03/08 06:40:35;;;;;;;;;;;5.20;70.30;;;;;;5096989;28;19950;-72
2023/03/08 06:43:02;;;;;;;;;;;5.20;70.50;;;;;;5093844;28;19935;-73
2023/03/08 06:45:28;;;;;;;;;;;5.20;70.50;;;;;;5096605;28;20384;-73
2023/03/08 06:47:55;;;;;;;;;;;5.20;70.50;;;;;;5095150;28;19951;-73
2023/03/08 06:50:21;;;;;;;;;;;5.20;70.60;;;;;;5093769;27;19928;-73
2023/03/08 06:52:48;;;;;;;;;;;5.20;70.60;;;;;;5098221;28;19934;-73
2023/03/08 06:55:15;;;;;;;;;;;5.20;70.70;;;;;;5094163;28;19932;-73
2023/03/08 06:57:42;;;;;;;;;;;5.20;70.70;;;;;;5092687;28;20357;-73
2023/03/08 07:00:11;;;;;;;;;;;5.10;70.70;;;;;;5096066;27;21596;-77
2023/03/08 07:02:37;;;;;;;;;;;5.20;70.70;;;;;;5090677;28;19927;-78
2023/03/08 07:05:04;;;;;;;;;;;5.20;70.70;;;;;;5094532;28;20286;-78
2023/03/08 07:07:31;;;;;;;;;;;5.20;70.80;;;;;;5090214;28;19996;-77
2023/03/08 07:09:58;;;;;;;;;;;5.20;70.80;;;;;;5094597;28;19928;-78
2023/03/08 07:12:24;;;;;;;;;;;5.10;71.00;;;;;;5097686;28;19928;-77
2023/03/08 07:14:53;;;;;;;;;;;5.20;71.30;;;;;;5093036;28;19982;-77
2023/03/08 07:17:19;;;;;;;;;;;5.20;71.70;;;;;;5094720;28;19923;-77
2023/03/08 07:19:46;;;;;;;;;;;5.10;72.00;;;;;;5095769;27;19928;-77
2023/03/08 07:22:13;;;;;;;;;;;5.10;72.30;;;;;;5100297;27;19950;-77
2023/03/08 07:24:39;;;;;;;;;;;5.10;72.70;;;;;;5092051;27;19931;-77
2023/03/08 07:27:06;;;;;;;;;;;5.10;72.90;;;;;;5092952;27;19989;-77
2023/03/08 07:29:33;;;;;;;;;;;5.10;73.10;;;;;;5092659;27;20566;-77
2023/03/08 07:32:00;;;;;;;;;;;5.10;73.30;;;;;;5090120;28;20411;-78
2023/03/08 07:34:27;;;;;;;;;;;5.10;73.40;;;;;;5081720;28;19928;-77
2023/03/08 07:36:53;;;;;;;;;;;5.10;73.50;;;;;;5082678;28;19928;-78
2023/03/08 07:39:21;;;;;;;;;;;5.20;73.80;;;;;;5093745;28;19977;-78
2023/03/08 07:41:48;;;;;;;;;;;5.10;73.90;;;;;;5089384;28;20015;-78
2023/03/08 07:44:15;;;;;;;;;;;5.10;74.20;;;;;;5098173;28;19934;-81
2023/03/08 07:46:41;;;;;;;;;;;5.10;74.40;;;;;;5091220;28;19932;-78
2023/03/08 07:49:10;;;;;;;;;;;5.10;74.60;;;;;;5093311;28;19944;-78
2023/03/08 07:51:37;;;;;;;;;;;5.10;74.90;;;;;;5094941;28;19977;-78
2023/03/08 07:54:03;;;;;;;;;;;5.10;75.10;;;;;;5086622;28;19928;-78
2023/03/08 07:56:30;;;;;;;;;;;5.10;75.20;;;;;;5081814;28;19932;-77
2023/03/08 07:58:57;;;;;;;;;;;5.10;75.40;;;;;;5075493;28;19963;-79
2023/03/08 08:01:23;;;;;;;;;;;5.10;75.60;;;;;;5079933;27;19935;-79
2023/03/08 08:03:50;;;;;;;;;;;5.10;75.80;;;;;;5080095;28;19943;-80
2023/03/08 08:06:18;;;;;;;;;;;5.10;75.80;;;;;;5088243;27;19928;-78
2023/03/08 08:08:45;;;;;;;;;;;5.10;76.00;;;;;;5088691;28;19928;-80
2023/03/08 08:11:12;;;;;;;;;;;5.10;76.00;;;;;;5092944;28;20005;-80
2023/03/08 08:13:38;;;;;;;;;;;5.10;76.30;;;;;;5095190;28;19939;-79
2023/03/08 08:16:06;;;;;;;;;;;5.10;76.40;;;;;;5092397;27;19935;-82
2023/03/08 08:18:32;;;;;;;;;;;5.10;76.60;;;;;;5100356;28;19973;-80
2023/03/08 08:20:59;;;;;;;;;;;5.10;76.80;;;;;;5097698;28;20717;-81
2023/03/08 08:23:27;;;;;;;;;;;5.10;76.90;;;;;;5096530;27;19932;-81
2023/03/08 08:25:54;;;;;;;;;;;5.10;77.10;;;;;;5098738;27;19928;-82
2023/03/08 08:28:21;;;;;;;;;;;5.00;77.20;;;;;;5098584;28;19931;-80
2023/03/08 08:30:54;;;;;;;;;;;5.00;77.40;;;;;;5101638;28;19928;-79
2023/03/08 08:33:21;;;;;;;;;;;5.00;77.40;;;;;;5100770;27;19985;-80
2023/03/08 08:35:47;;;;;;;;;;;5.00;77.40;;;;;;5104267;27;19928;-81
2023/03/08 08:38:14;;;;;;;;;;;5.00;77.50;;;;;;5106126;28;19960;-79
2023/03/08 08:40:42;;;;;;;;;;;5.00;77.50;;;;;;5103800;28;20301;-78
2023/03/08 08:43:08;;;;;;;;;;;5.00;77.60;;;;;;5099523;28;19932;-80
2023/03/08 08:45:35;;;;;;;;;;;5.00;77.60;;;;;;5098024;27;19928;-80
2023/03/08 08:48:01;;;;;;;;;;;5.00;77.80;;;;;;5100118;28;19931;-79
2023/03/08 08:50:28;;;;;;;;;;;4.90;77.80;;;;;;5102392;28;20017;-78
2023/03/08 08:52:55;;;;;;;;;;;4.90;77.90;;;;;;5099066;28;19928;-79
2023/03/08 08:55:22;;;;;;;;;;;4.90;78.00;;;;;;5100947;28;19935;-78
2023/03/08 08:57:50;;;;;;;;;;;4.90;78.20;;;;;;5091437;28;19932;-78
2023/03/08 09:00:18;;;;;;;;;;;4.90;78.20;;;;;;5092313;27;19947;-79
2023/03/08 09:02:45;;;;;;;;;;;4.90;78.30;;;;;;5094047;27;19927;-78
2023/03/08 09:05:11;;;;;;;;;;;4.90;78.30;;;;;;5092135;28;19935;-79
2023/03/08 09:07:38;;;;;;;;;;;4.90;78.40;;;;;;5098425;28;19935;-78
2023/03/08 09:10:05;;;;;;;;;;;4.90;78.60;;;;;;5093207;28;19977;-79
2023/03/08 09:12:31;;;;;;;;;;;4.90;78.60;;;;;;5097841;28;19932;-79
2023/03/08 09:14:59;;;;;;;;;;;4.90;78.60;;;;;;5095514;27;19985;-78
2023/03/08 09:17:26;;;;;;;;;;;4.80;78.70;;;;;;5100287;28;20934;-78
2023/03/08 09:19:52;;;;;;;;;;;4.90;78.90;;;;;;5095932;28;20465;-83
2023/03/08 09:22:19;;;;;;;;;;;4.80;78.90;;;;;;5097874;28;19928;-80
2023/03/08 09:24:48;;;;;;;;;;;4.80;79.00;;;;;;5102091;27;19928;-79
2023/03/08 09:27:14;;;;;;;;;;;4.80;79.00;;;;;;5103167;27;19981;-82
2023/03/08 09:29:41;;;;;;;;;;;4.80;79.00;;;;;;5104871;28;20023;-81
2023/03/08 09:32:09;;;;;;;;;;;4.80;79.20;;;;;;5102516;27;20372;-81
2023/03/08 09:34:35;;;;;;;;;;;4.80;79.30;;;;;;5110163;27;19931;-80
2023/03/08 09:37:02;;;;;;;;;;;4.80;79.40;;;;;;5094181;28;19939;-75
2023/03/08 09:39:29;;;;;;;;;;;4.80;79.50;;;;;;5094111;28;19935;-73
2023/03/08 09:41:56;;;;;;;;;;;4.80;79.60;;;;;;5100781;27;19928;-74
2023/03/08 09:44:42;;;;;;;;;;;4.80;79.80;;;;;;5096313;28;19995;-73
2023/03/08 09:47:13;;;;;;;;;;;4.80;79.90;;;;;;5089712;28;19928;-72
2023/03/08 09:49:42;;;;;;;;;;;4.80;80.00;;;;;;5099730;28;19928;-75
2023/03/08 09:52:12;;;;;;;;;;;4.80;80.30;;;;;;5105015;27;19927;-75
2023/03/08 09:54:39;;;;;;;;;;;4.80;80.40;;;;;;5096134;28;19932;-75
2023/03/08 09:57:10;;;;;;;;;;;4.70;80.40;;;;;;5101131;28;20509;-75
2023/03/08 09:59:39;;;;;;;;;;;4.80;80.60;;;;;;5093241;28;19928;-76
2023/03/08 10:02:26;;;;;;;;;;;4.80;80.90;;;;;;5098610;27;19976;-75
2023/03/08 10:04:57;;;;;;;;;;;4.70;80.90;;;;;;5095346;28;20359;-75
2023/03/08 10:07:27;;;;;;;;;;;4.70;81.00;;;;;;5094738;27;19934;-75
2023/03/08 10:10:01;;;;;;;;;;;4.80;81.10;;;;;;5098857;27;19977;-75
2023/03/08 10:12:29;;;;;;;;;;;4.70;81.00;;;;;;5099824;27;19988;-75
2023/03/08 10:14:57;;;;;;;;;;;4.70;81.10;;;;;;5098167;28;20378;-75
2023/03/08 10:17:28;;;;;;;;;;;4.70;81.10;;;;;;5097377;27;19932;-76
2023/03/08 10:19:56;;;;;;;;;;;4.70;81.30;;;;;;5097854;27;19932;-75
2023/03/08 10:22:26;;;;;;;;;;;4.70;81.30;;;;;;5099453;28;19931;-76
2023/03/08 10:24:55;;;;;;;;;;;4.80;81.40;;;;;;5098883;28;19924;-75
2023/03/08 10:27:23;;;;;;;;;;;4.70;81.40;;;;;;5095498;28;20458;-75
2023/03/08 10:29:50;;;;;;;;;;;4.80;81.60;;;;;;5093542;28;19928;-75
2023/03/08 10:32:17;;;;;;;;;;;4.80;81.70;;;;;;5094283;28;19932;-75
2023/03/08 10:34:44;;;;;;;;;;;4.80;81.80;;;;;;5095350;28;19931;-75
2023/03/08 10:37:11;;;;;;;;;;;4.70;81.90;;;;;;5094134;28;19954;-75
2023/03/08 10:39:46;;;;;;;;;;;4.80;82.00;;;;;;5096597;28;19932;-75
2023/03/08 10:42:14;;;;;;;;;;;4.80;82.20;;;;;;5107243;28;20004;-76
2023/03/08 10:44:44;;;;;;;;;;;4.80;82.30;;;;;;5101386;27;20013;-76
2023/03/08 10:47:18;;;;;;;;;;;4.70;82.40;;;;;;5103873;28;19952;-75
2023/03/08 10:49:46;;;;;;;;;;;4.80;82.60;;;;;;5095865;28;19935;-74
2023/03/08 10:52:20;;;;;;;;;;;4.80;82.80;;;;;;5096449;28;20015;-76
2023/03/08 10:54:59;;;;;;;;;;;4.80;83.00;;;;;;5100422;28;19928;-76
2023/03/08 10:57:26;;;;;;;;;;;4.80;82.80;;;;;;5098411;28;19984;-76
2023/03/08 10:59:52;;;;;;;;;;;4.80;82.70;;;;;;5100470;28;19931;-75
2023/03/08 11:02:21;;;;;;;;;;;4.80;82.60;;;;;;5101095;28;19931;-75
2023/03/08 11:04:53;;;;;;;;;;;4.90;82.70;;;;;;5099456;28;20023;-76
2023/03/08 11:07:22;;;;;;;;;;;4.90;82.70;;;;;;5099010;27;19932;-76
2023/03/08 11:09:48;;;;;;;;;;;4.90;82.60;;;;;;5098355;28;19932;-75
2023/03/08 11:12:21;;;;;;;;;;;4.90;82.50;;;;;;5096842;27;19939;-76
2023/03/08 11:14:47;;;;;;;;;;;4.90;82.50;;;;;;5097070;28;19957;-76
2023/03/08 11:17:18;;;;;;;;;;;4.90;82.70;;;;;;5102973;27;19928;-75
2023/03/08 11:19:58;;;;;;;;;;;4.90;83.10;;;;;;5099860;27;19987;-74
2023/03/08 11:22:31;;;;;;;;;;;4.90;83.80;;;;;;5095682;28;19928;-76
2023/03/08 11:25:05;;;;;;;;;;;5.00;84.80;;;;;;5097392;27;19928;-76
2023/03/08 11:27:38;;;;;;;;;;;5.00;86.00;;;;;;5097528;28;19934;-74
2023/03/08 11:30:13;;;;;;;;;;;5.00;86.30;;;;;;5096773;27;19927;-76
2023/03/08 11:32:45;;;;;;;;;;;5.00;86.30;;;;;;5099662;28;19928;-75
2023/03/08 11:35:18;;;;;;;;;;;5.00;86.40;;;;;;5097653;28;19928;-75
2023/03/08 11:37:50;;;;;;;;;;;5.00;86.60;;;;;;5094422;28;19972;-75
2023/03/08 11:40:21;;;;;;;;;;;5.10;87.50;;;;;;5101427;28;20409;-75
2023/03/08 11:42:52;;;;;;;;;;;5.10;87.90;;;;;;5098221;28;19927;-75
2023/03/08 11:45:22;;;;;;;;;;;5.10;88.60;;;;;;5093820;28;20351;-77
2023/03/08 11:48:04;;;;;;;;;;;5.20;88.70;;;;;;5102045;28;19981;-76
2023/03/08 11:50:33;;;;;;;;;;;5.20;89.00;;;;;;5099813;28;19924;-75
2023/03/08 11:53:05;;;;;;;;;;;5.20;89.30;;;;;;5095677;28;19935;-75
2023/03/08 11:55:36;;;;;;;;;;;5.30;90.00;;;;;;5096506;28;19928;-75
2023/03/08 11:58:05;;;;;;;;;;;5.30;90.00;;;;;;5093914;28;20384;-75
2023/03/08 12:00:33;;;;;;;;;;;5.30;90.10;;;;;;5088824;28;20469;-75
2023/03/08 12:03:03;;;;;;;;;;;5.30;90.20;;;;;;5094400;28;19955;-75
2023/03/08 12:05:31;;;;;;;;;;;5.40;90.40;;;;;;5098692;28;20464;-76
2023/03/08 12:08:01;;;;;;;;;;;5.40;90.60;;;;;;5094069;28;19935;-75
2023/03/08 12:10:28;;;;;;;;;;;5.50;90.80;;;;;;5098641;28;19981;-75
2023/03/08 12:12:56;;;;;;;;;;;5.50;91.20;;;;;;5096668;28;19939;-75
2023/03/08 12:15:26;;;;;;;;;;;5.50;91.20;;;;;;5097966;28;19927;-76
2023/03/08 12:17:53;;;;;;;;;;;5.60;91.50;;;;;;5094082;28;19932;-75
2023/03/08 12:20:21;;;;;;;;;;;5.60;91.50;;;;;;5098872;28;19999;-75
2023/03/08 12:22:50;;;;;;;;;;;5.60;91.80;;;;;;5096408;28;19935;-75
2023/03/08 12:25:22;;;;;;;;;;;5.70;92.00;;;;;;5093042;28;19982;-75
2023/03/08 12:27:51;;;;;;;;;;;5.70;92.20;;;;;;5098521;28;19938;-75
2023/03/08 12:30:22;;;;;;;;;;;5.70;92.20;;;;;;5096144;28;19932;-75
2023/03/08 12:32:50;;;;;;;;;;;5.80;92.30;;;;;;5087081;28;19943;-75
2023/03/08 12:35:27;;;;;;;;;;;5.80;92.20;;;;;;5099310;28;19928;-76
2023/03/08 12:37:58;;;;;;;;;;;5.80;92.30;;;;;;5094598;28;19935;-75
2023/03/08 12:40:46;;;;;;;;;;;5.80;92.20;;;;;;5090276;28;20309;-75
2023/03/08 12:43:15;;;;;;;;;;;5.90;92.40;;;;;;5090443;28;19928;-76
2023/03/08 12:45:42;;;;;;;;;;;5.90;92.20;;;;;;5096878;28;19932;-75
2023/03/08 12:48:20;;;;;;;;;;;5.90;92.20;;;;;;5100051;28;19931;-75
2023/03/08 12:50:55;;;;;;;;;;;6.00;92.50;;;;;;5094950;28;19985;-75
2023/03/08 12:53:29;;;;;;;;;;;6.00;92.70;;;;;;5097640;28;19927;-76
2023/03/08 12:56:00;;;;;;;;;;;6.00;92.90;;;;;;5093608;28;19939;-76
2023/03/08 12:58:28;;;;;;;;;;;6.10;93.10;;;;;;5091569;28;19928;-75
2023/03/08 13:00:58;;;;;;;;;;;6.10;92.90;;;;;;5090789;28;19993;-76
2023/03/08 13:03:28;;;;;;;;;;;6.10;92.90;;;;;;5100574;28;20483;-75
2023/03/08 13:05:55;;;;;;;;;;;6.20;92.70;;;;;;5093920;28;19928;-75
2023/03/08 13:08:27;;;;;;;;;;;6.20;92.50;;;;;;5099879;28;19988;-76
2023/03/08 13:10:57;;;;;;;;;;;6.20;93.00;;;;;;5095067;27;19932;-75
2023/03/08 13:13:27;;;;;;;;;;;6.30;92.80;;;;;;5098075;28;20270;-75
2023/03/08 13:16:05;;;;;;;;;;;6.30;92.60;;;;;;5103285;28;19936;-75
2023/03/08 13:18:32;;;;;;;;;;;6.30;92.80;;;;;;5098014;28;19927;-75
2023/03/08 13:21:08;;;;;;;;;;;6.30;93.10;;;;;;5098037;28;19934;-75
2023/03/08 13:23:37;;;;;;;;;;;6.40;93.50;;;;;;5100398;28;20339;-75
2023/03/08 13:26:11;;;;;;;;;;;6.40;93.50;;;;;;5101393;28;19988;-75
2023/03/08 13:28:40;;;;;;;;;;;6.40;93.20;;;;;;5095103;28;20001;-76
2023/03/08 13:31:13;;;;;;;;;;;6.50;93.60;;;;;;5096823;28;19992;-75
2023/03/08 13:33:41;;;;;;;;;;;6.50;93.60;;;;;;5099345;28;19931;-76
2023/03/08 13:36:14;;;;;;;;;;;6.50;93.70;;;;;;5102362;28;20350;-75
2023/03/08 13:38:41;;;;;;;;;;;6.60;94.10;;;;;;5095502;28;20349;-75
2023/03/08 13:41:07;;;;;;;;;;;6.60;93.90;;;;;;5101951;28;20027;-75
2023/03/08 13:43:35;;;;;;;;;;;6.60;93.80;;;;;;5096501;28;19928;-75
2023/03/08 13:46:02;;;;;;;;;;;6.70;93.90;;;;;;5102807;28;19928;-76
2023/03/08 13:48:33;;;;;;;;;;;6.70;93.80;;;;;;5095524;28;19932;-75
2023/03/08 13:51:00;;;;;;;;;;;6.70;94.00;;;;;;5099992;28;20035;-75
2023/03/08 13:53:28;;;;;;;;;;;6.70;94.10;;;;;;5100136;28;20397;-76
2023/03/08 13:55:56;;;;;;;;;;;6.80;94.10;;;;;;5097425;28;19932;-76
2023/03/08 13:58:26;;;;;;;;;;;6.80;94.30;;;;;;5095475;28;20046;-76
2023/03/08 14:01:00;;;;;;;;;;;6.80;95.00;;;;;;5092748;28;19928;-76
2023/03/08 14:03:28;;;;;;;;;;;6.90;95.50;;;;;;5099207;28;19931;-80
2023/03/08 14:05:56;;;;;;;;;;;6.90;95.90;;;;;;5094995;28;19932;-79
2023/03/08 14:08:24;;;;;;;;;;;7.00;96.30;;;;;;5097480;28;19949;-79
2023/03/08 14:10:52;;;;;;;;;;;6.90;96.50;;;;;;5098788;28;20286;-80
2023/03/08 14:13:19;;;;;;;;;;;7.00;96.60;;;;;;5098454;28;19985;-80
2023/03/08 14:15:49;;;;;;;;;;;7.00;96.60;;;;;;5095872;28;20246;-79
2023/03/08 14:18:20;;;;;;;;;;;7.00;96.80;;;;;;5096934;27;20419;-79
2023/03/08 14:20:59;;;;;;;;;;;7.00;96.90;;;;;;5097852;28;19931;-79
2023/03/08 14:23:26;;;;;;;;;;;7.10;96.90;;;;;;5097367;27;19932;-79
2023/03/08 14:25:56;;;;;;;;;;;7.10;97.20;;;;;;5096850;28;19928;-80
2023/03/08 14:28:35;;;;;;;;;;;7.10;97.40;;;;;;5092760;28;19928;-79
2023/03/08 14:31:02;;;;;;;;;;;7.10;97.40;;;;;;5094694;27;19943;-80
2023/03/08 14:33:29;;;;;;;;;;;7.10;97.30;;;;;;5103016;28;19928;-76
2023/03/08 14:35:58;;;;;;;;;;;7.20;97.40;;;;;;5090813;28;19938;-76